Eurasian Highway — 7JKY — position and weather

sailwx.info

Track history (hours):
 
Tides and Currents Weather Stations Pressure Air Temp Water Temp Dewpoint Dewpoint Depression Visibility Wind Speed Wind Dir Waves Ship Positions

Eurasian Highway

Last reported at 2016-Feb-08 03:33 UTC. Time now 2016-Feb-08 04:03 UTC.
Position N 38°14' W 026°49'.

Length 199 m; draft 9.3 m.

Type: Cargo ship. MMSI: 432839000.

Date/timePositionNaut miles runAvg speedWind from/ knotsBaromVisibWave heightAir tempDewpointWater temp
2016-Feb-08 03:33N 38°14' W 026°49'1716.8
2016-Feb-08 02:33N 38°12' W 027°10'1717.1
2016-Feb-08 01:33N 38°09' W 027°32'1717.2
2016-Feb-08 00:34N 38°06' W 027°53'1717.1
2016-Feb-07 23:33N 38°03' W 028°15'1716.6
2016-Feb-07 22:34N 38°01' W 028°35'1716.6
2016-Feb-07 21:33N 37°58' W 028°56'1616.4
2016-Feb-07 20:33N 37°55' W 029°17'1616.4
2016-Feb-07 19:33N 37°53' W 029°37'1616.3
2016-Feb-07 18:34N 37°50' W 029°58'1716.6
2016-Feb-07 17:33N 37°48' W 030°18'1716.4
2016-Feb-07 16:33N 37°45' W 030°39'1716.4
2016-Feb-07 15:31N 37°43' W 031°00'3816.2
2016-Feb-07 13:11N 37°37' W 031°47'1216.3
2016-Feb-07 12:28N 37°35' W 032°02'2016.3
2016-Feb-07 11:14N 37°32' W 032°27'  
Track history (hours):
 
Tides and Currents Weather Stations Pressure Air Temp Water Temp Dewpoint Dewpoint Depression Visibility Wind Speed Wind Dir Waves Ship Positions

Eurasian Highway

Last reported at 2016-Feb-08 03:33 UTC. Time now 2016-Feb-08 04:03 UTC.
Position N 38°14' W 026°49'.

Length 199 m; draft 9.3 m.

Type: Cargo ship. MMSI: 432839000.

Date/timePositionNaut miles runAvg speedWind from/ knotsBaromVisibWave heightAir tempDewpointWater temp
2016-Feb-08 03:33N 38°14' W 026°49'1716.8
2016-Feb-08 02:33N 38°12' W 027°10'1717.1
2016-Feb-08 01:33N 38°09' W 027°32'1717.2
2016-Feb-08 00:34N 38°06' W 027°53'1717.1
2016-Feb-07 23:33N 38°03' W 028°15'1716.6
2016-Feb-07 22:34N 38°01' W 028°35'1716.6
2016-Feb-07 21:33N 37°58' W 028°56'1616.4
2016-Feb-07 20:33N 37°55' W 029°17'1616.4
2016-Feb-07 19:33N 37°53' W 029°37'1616.3
2016-Feb-07 18:34N 37°50' W 029°58'1716.6
2016-Feb-07 17:33N 37°48' W 030°18'1716.4
2016-Feb-07 16:33N 37°45' W 030°39'1716.4
2016-Feb-07 15:31N 37°43' W 031°00'3816.2
2016-Feb-07 13:11N 37°37' W 031°47'1216.3
2016-Feb-07 12:28N 37°35' W 032°02'2016.3
2016-Feb-07 11:14N 37°32' W 032°27'  

Dump ship's entire track history